Time;durP1;ratioP1;P1;durP2;ratioP2;P2;SDS_P1;SDS_P2;PMS_P1;PMS_P2;Temp;Humidity;BMP_temperature;BMP_pressure;BME280_temperature;BME280_humidity;BME280_pressure;Samples;Min_cycle;Max_cycle;Signal;HPM_P1;HPM_P2
2023/01/17 00:02:04;;;;;;;4.73;3.33;;;;;;;;;;5032809;28;20235;-70
2023/01/17 00:10:06;;;;;;;3.27;2.67;;;4.70;89.50;;;;;;5025076;28;20200;-71
2023/01/17 00:12:32;;;;;;;5.17;3.00;;;4.70;89.30;;;;;;5025066;28;20669;-70
2023/01/17 00:14:58;;;;;;;4.87;3.53;;;4.70;89.40;;;;;;5026888;28;20972;-70
2023/01/17 00:17:26;;;;;;;3.30;3.00;;;4.70;89.30;;;;;;5032945;28;20188;-70
2023/01/17 01:35:16;;;;;;;2.17;1.73;;;;;;;;;;5034533;28;20196;-70
2023/01/17 01:37:43;;;;;;;1.33;1.33;;;4.90;89.30;;;;;;5027398;28;20406;-70
2023/01/17 01:40:10;;;;;;;2.13;1.90;;;4.90;89.60;;;;;;5031459;28;20741;-70
2023/01/17 01:42:36;;;;;;;1.50;1.50;;;;;;;;;;5025634;28;20188;-70
2023/01/17 01:45:23;;;;;;;2.03;1.77;;;4.90;89.50;;;;;;5040634;28;20649;-70
2023/01/17 01:47:55;;;;;;;2.53;2.13;;;4.90;89.40;;;;;;5026419;28;20267;-70
2023/01/17 01:50:21;;;;;;;1.53;1.20;;;4.90;89.40;;;;;;5028198;28;20356;-70
2023/01/17 01:52:52;;;;;;;2.10;1.53;;;4.90;89.70;;;;;;5021284;28;20176;-70
2023/01/17 01:55:33;;;;;;;5.13;1.50;;;4.90;89.50;;;;;;5028130;28;20180;-69
2023/01/17 01:58:06;;;;;;;2.07;1.80;;;4.90;89.60;;;;;;5033572;28;20191;-69
2023/01/17 02:00:35;;;;;;;1.20;1.20;;;4.90;89.70;;;;;;5027946;28;20313;-70
2023/01/17 02:03:07;;;;;;;0.87;0.87;;;4.90;89.60;;;;;;5034674;28;20704;-69
2023/01/17 02:05:34;;;;;;;1.83;1.73;;;4.90;89.50;;;;;;5023487;28;20208;-70
2023/01/17 02:08:06;;;;;;;1.03;1.03;;;4.90;89.40;;;;;;5023046;28;20208;-70
2023/01/17 02:10:40;;;;;;;3.03;1.70;;;5.00;89.50;;;;;;5023260;28;20180;-69
2023/01/17 02:13:08;;;;;;;1.90;1.10;;;5.00;89.40;;;;;;5028440;28;20190;-70
2023/01/17 02:15:48;;;;;;;1.07;1.03;;;5.00;89.40;;;;;;5034053;28;20184;-70
2023/01/17 02:18:20;;;;;;;1.60;1.53;;;5.00;89.50;;;;;;5024898;28;20192;-70
2023/01/17 02:21:03;;;;;;;1.97;1.83;;;5.00;89.40;;;;;;5033844;28;20195;-70
2023/01/17 02:24:00;;;;;;;1.20;1.20;;;5.00;89.50;;;;;;5024150;28;20250;-70
2023/01/17 02:26:52;;;;;;;1.67;1.57;;;5.00;89.40;;;;;;5023233;28;20603;-70
2023/01/17 02:29:27;;;;;;;1.23;1.13;;;5.00;89.30;;;;;;5014439;28;20215;-70
2023/01/17 02:31:53;;;;;;;1.63;1.33;;;;;;;;;;5012463;28;20632;-70
2023/01/17 02:34:30;;;;;;;1.40;1.30;;;5.00;89.30;;;;;;5022480;28;20291;-70
2023/01/17 02:37:06;;;;;;;3.27;1.77;;;5.00;89.40;;;;;;5013725;28;20291;-70
2023/01/17 02:39:39;;;;;;;1.07;1.00;;;5.10;89.20;;;;;;5023587;28;20673;-70
2023/01/17 02:42:13;;;;;;;2.07;1.93;;;5.10;89.20;;;;;;5023635;28;20280;-70
2023/01/17 02:44:41;;;;;;;2.50;2.10;;;5.10;89.30;;;;;;5023903;28;20208;-69
2023/01/17 02:47:28;;;;;;;1.50;1.40;;;5.10;89.30;;;;;;5023423;28;20612;-70
2023/01/17 02:50:00;;;;;;;1.27;1.17;;;5.20;89.30;;;;;;5023347;28;20287;-70
2023/01/17 02:53:05;;;;;;;1.43;1.23;;;5.20;89.50;;;;;;5021433;28;20215;-69
2023/01/17 02:55:52;;;;;;;2.50;1.53;;;5.30;89.40;;;;;;4943221;28;20292;-70
2023/01/17 02:58:18;;;;;;;4.13;1.47;;;;;;;;;;4939184;28;20254;-70
2023/01/17 03:01:14;;;;;;;2.00;1.27;;;5.30;89.50;;;;;;4942704;29;20227;-70
2023/01/17 03:03:58;;;;;;;1.07;1.07;;;5.30;89.30;;;;;;4944047;28;20242;-70
2023/01/17 03:06:32;;;;;;;1.80;1.47;;;5.40;89.40;;;;;;4945612;28;20214;-70
2023/01/17 03:08:58;;;;;;;2.30;1.53;;;;;;;;;;4944522;28;20222;-69
2023/01/17 03:11:24;;;;;;;2.70;1.70;;;;;;;;;;4953731;28;20273;-70
2023/01/17 03:13:58;;;;;;;1.33;1.23;;;5.30;89.40;;;;;;4944706;28;20226;-70
2023/01/17 03:16:26;;;;;;;2.37;1.40;;;5.30;89.20;;;;;;4944156;28;20191;-70
2023/01/17 03:18:52;;;;;;;1.67;1.13;;;;;;;;;;4945667;28;20242;-70
2023/01/17 03:21:19;;;;;;;2.07;1.87;;;5.30;89.30;;;;;;4944751;29;20655;-69
2023/01/17 03:23:45;;;;;;;1.67;1.57;;;;;;;;;;4947990;28;20591;-70
2023/01/17 03:26:11;;;;;;;3.60;2.10;;;;;;;;;;4943377;28;20199;-70
2023/01/17 03:28:37;;;;;;;2.13;1.73;;;5.20;89.30;;;;;;4943748;28;20705;-70
2023/01/17 03:31:03;;;;;;;1.47;0.97;;;5.20;89.30;;;;;;4944603;28;20249;-70
2023/01/17 03:33:29;;;;;;;1.47;1.37;;;5.20;89.20;;;;;;5022597;28;20200;-70
2023/01/17 03:35:56;;;;;;;2.17;1.90;;;5.20;89.20;;;;;;5027207;28;20188;-70
2023/01/17 03:38:27;;;;;;;1.77;1.60;;;5.10;89.20;;;;;;5020196;28;20211;-70
2023/01/17 03:40:53;;;;;;;1.23;1.13;;;5.10;89.20;;;;;;5025970;28;20557;-70
2023/01/17 03:43:19;;;;;;;4.10;1.53;;;5.20;89.50;;;;;;5055499;28;20229;-69
2023/01/17 03:45:48;;;;;;;2.53;1.63;;;5.20;89.90;;;;;;5027023;28;20219;-70
2023/01/17 03:48:14;;;;;;;1.73;1.63;;;;;;;;;;5024013;28;20208;-70
2023/01/17 03:50:40;;;;;;;1.33;1.33;;;;;;;;;;5021852;28;21110;-70
2023/01/17 03:53:06;;;;;;;1.13;1.13;;;;;;;;;;5039845;28;20253;-70
2023/01/17 03:55:32;;;;;;;1.40;1.27;;;5.10;89.70;;;;;;5027031;28;20188;-69
2023/01/17 03:57:58;;;;;;;1.27;1.10;;;5.10;89.80;;;;;;5032480;28;20726;-70
2023/01/17 04:00:24;;;;;;;2.60;1.70;;;;;;;;;;5026601;28;20619;-70
2023/01/17 04:02:49;;;;;;;3.27;1.20;;;5.10;90.30;;;;;;5034011;28;21025;-70
2023/01/17 04:05:15;;;;;;;2.57;2.47;;;;;;;;;;5027399;28;20192;-70
2023/01/17 04:07:42;;;;;;;1.13;1.03;;;;;;;;;;5024985;28;20572;-70
2023/01/17 04:10:08;;;;;;;5.63;1.67;;;5.10;90.50;;;;;;5032767;28;20219;-70
2023/01/17 04:12:34;;;;;;;1.67;1.67;;;;;;;;;;5031768;28;20637;-70
2023/01/17 04:15:00;;;;;;;1.30;1.20;;;;;;;;;;5033492;28;20218;-69
2023/01/17 04:17:26;;;;;;;1.87;1.77;;;;;;;;;;5030934;28;20188;-70
2023/01/17 04:19:52;;;;;;;2.13;2.03;;;5.10;90.70;;;;;;5023338;28;20180;-71
2023/01/17 04:22:18;;;;;;;2.10;1.93;;;;;;;;;;5024823;28;20191;-70
2023/01/17 04:24:44;;;;;;;6.53;2.23;;;5.10;91.50;;;;;;5026778;28;20186;-72
2023/01/17 04:27:13;;;;;;;2.23;2.03;;;5.10;91.10;;;;;;5039941;28;20187;-71
2023/01/17 04:29:39;;;;;;;2.30;1.37;;;5.10;91.20;;;;;;5042288;28;20331;-71
2023/01/17 04:32:04;;;;;;;1.80;1.77;;;5.10;90.80;;;;;;5024295;28;20180;-71
2023/01/17 04:34:30;;;;;;;4.80;2.50;;;;;;;;;;5026372;28;20242;-71
2023/01/17 04:36:56;;;;;;;1.93;1.83;;;;;;;;;;5035521;28;20191;-71
2023/01/17 04:39:22;;;;;;;1.90;1.80;;;;;;;;;;5027880;28;20195;-71
2023/01/17 04:41:48;;;;;;;1.40;1.30;;;;;;;;;;5026050;28;20180;-71
2023/01/17 04:44:14;;;;;;;2.23;1.97;;;5.10;90.50;;;;;;5026407;28;20309;-70
2023/01/17 04:46:40;;;;;;;3.57;2.03;;;5.20;91.50;;;;;;5029115;28;20242;-71
2023/01/17 04:49:06;;;;;;;2.63;1.83;;;;;;;;;;5028144;28;20243;-71
2023/01/17 04:51:32;;;;;;;2.47;1.60;;;;;;;;;;5023745;28;20743;-71
2023/01/17 04:53:58;;;;;;;1.30;1.17;;;;;;;;;;5028217;28;20181;-71
2023/01/17 04:56:24;;;;;;;1.67;1.57;;;;;;;;;;5030401;28;20650;-71
2023/01/17 04:58:50;;;;;;;1.43;1.33;;;;;;;;;;5029661;28;20195;-71
2023/01/17 05:01:16;;;;;;;1.87;1.03;;;5.10;90.80;;;;;;5038769;28;21012;-71
2023/01/17 05:03:41;;;;;;;1.57;1.47;;;5.10;91.00;;;;;;5033855;28;20214;-71
2023/01/17 05:06:07;;;;;;;1.47;1.37;;;;;;;;;;5038045;28;20579;-71
2023/01/17 05:08:33;;;;;;;2.23;1.80;;;;;;;;;;5022577;28;20216;-70
2023/01/17 05:10:59;;;;;;;2.63;1.80;;;;;;;;;;5028269;28;20181;-70
2023/01/17 05:13:25;;;;;;;1.73;1.63;;;;;;;;;;5033200;28;20198;-70
2023/01/17 05:15:53;;;;;;;1.80;1.70;;;5.10;91.40;;;;;;5036595;28;20576;-70
2023/01/17 05:18:19;;;;;;;3.10;2.40;;;;;;;;;;5024879;28;20271;-71
2023/01/17 05:20:45;;;;;;;1.97;1.87;;;;;;;;;;5025964;28;20212;-71
2023/01/17 05:23:11;;;;;;;1.43;1.30;;;;;;;;;;5027833;28;20231;-70
2023/01/17 05:25:43;;;;;;;1.50;1.50;;;;;;;;;;5030646;28;20184;-70
2023/01/17 05:28:10;;;;;;;1.87;1.63;;;5.10;92.00;;;;;;5039272;28;20735;-70
2023/01/17 05:30:37;;;;;;;1.80;1.73;;;5.10;92.10;;;;;;5030651;28;20590;-71
2023/01/17 05:33:03;;;;;;;1.83;1.73;;;;;;;;;;5028196;28;20181;-70
2023/01/17 05:35:33;;;;;;;1.90;1.80;;;5.10;91.70;;;;;;5027510;28;20637;-69
2023/01/17 05:38:00;;;;;;;1.53;1.43;;;5.10;91.50;;;;;;5026406;28;20184;-70
2023/01/17 05:40:28;;;;;;;1.20;1.10;;;5.10;91.50;;;;;;5030103;28;20237;-69
2023/01/17 05:42:56;;;;;;;1.97;1.83;;;5.10;91.40;;;;;;5033057;28;20183;-69
2023/01/17 05:45:24;;;;;;;1.07;1.03;;;5.10;91.40;;;;;;5024532;28;20223;-70
2023/01/17 05:47:51;;;;;;;1.37;1.37;;;5.10;91.60;;;;;;5028097;28;20314;-71
2023/01/17 05:50:24;;;;;;;1.60;1.50;;;5.10;91.90;;;;;;5028900;28;20181;-71
2023/01/17 05:52:52;;;;;;;2.30;2.10;;;5.10;91.70;;;;;;5027508;28;20188;-71
2023/01/17 05:55:19;;;;;;;1.37;0.93;;;5.10;91.70;;;;;;5023859;28;20184;-71
2023/01/17 05:57:45;;;;;;;1.70;1.60;;;;;;;;;;5027157;28;20620;-71
2023/01/17 06:00:12;;;;;;;2.47;1.40;;;5.20;92.40;;;;;;5023674;28;20237;-72
2023/01/17 06:02:38;;;;;;;1.93;1.60;;;;;;;;;;5027391;28;20696;-71
2023/01/17 06:05:04;;;;;;;1.20;1.20;;;5.20;92.00;;;;;;5028460;28;20581;-71
2023/01/17 06:07:30;;;;;;;1.87;1.23;;;;;;;;;;5021958;28;20180;-71
2023/01/17 06:09:56;;;;;;;3.03;1.50;;;;;;;;;;5024321;28;20199;-72
2023/01/17 06:12:21;;;;;;;3.00;1.67;;;5.30;92.80;;;;;;5029561;28;20180;-71
2023/01/17 06:14:47;;;;;;;1.47;1.37;;;;;;;;;;5029464;28;20180;-71
2023/01/17 06:17:13;;;;;;;2.13;2.03;;;;;;;;;;5024218;28;20342;-71
2023/01/17 06:19:39;;;;;;;2.70;2.50;;;5.40;93.00;;;;;;5025852;28;20218;-73
2023/01/17 06:22:05;;;;;;;3.57;1.93;;;;;;;;;;5025280;28;20271;-72
2023/01/17 06:24:32;;;;;;;2.50;2.20;;;;;;;;;;5027243;28;20185;-73
2023/01/17 06:26:58;;;;;;;2.63;1.43;;;;;;;;;;5024962;28;20176;-71
2023/01/17 06:29:24;;;;;;;2.37;1.93;;;;;;;;;;5026792;28;20688;-72
2023/01/17 06:31:50;;;;;;;1.43;0.87;;;;;;;;;;5031835;28;20196;-72
2023/01/17 06:34:16;;;;;;;2.17;1.77;;;5.70;92.50;;;;;;5025974;28;20191;-73
2023/01/17 06:36:42;;;;;;;1.53;1.43;;;;;;;;;;5026783;28;20189;-71
2023/01/17 06:39:11;;;;;;;1.63;1.53;;;5.90;92.70;;;;;;5029035;28;20628;-72
2023/01/17 06:41:37;;;;;;;2.43;2.07;;;6.00;92.60;;;;;;5028996;28;20693;-70
2023/01/17 06:44:02;;;;;;;1.80;1.67;;;6.10;92.70;;;;;;5024673;28;20204;-72
2023/01/17 06:46:28;;;;;;;2.73;1.50;;;;;;;;;;5025878;28;20208;-73
2023/01/17 06:48:54;;;;;;;1.80;1.50;;;6.30;92.60;;;;;;5024079;28;20270;-72
2023/01/17 06:51:20;;;;;;;1.73;1.63;;;6.40;92.30;;;;;;5030081;28;20183;-72
2023/01/17 06:53:48;;;;;;;12.03;1.87;;;6.50;92.30;;;;;;5031600;28;20181;-72
2023/01/17 06:56:14;;;;;;;1.80;1.70;;;6.60;92.10;;;;;;5022667;28;20187;-72
2023/01/17 06:58:40;;;;;;;2.40;2.07;;;;;;;;;;5022950;28;20192;-72
2023/01/17 07:01:07;;;;;;;3.23;1.83;;;6.80;91.60;;;;;;5025552;28;20173;-72
2023/01/17 07:03:33;;;;;;;2.17;2.07;;;;;;;;;;5027633;28;20183;-72
2023/01/17 07:06:03;;;;;;;2.13;1.97;;;7.00;91.40;;;;;;5058050;28;20689;-72
2023/01/17 07:08:29;;;;;;;1.57;1.40;;;;;;;;;;5024545;28;20220;-72
2023/01/17 07:11:00;;;;;;;1.50;1.40;;;7.10;91.30;;;;;;5025404;28;20254;-73
2023/01/17 07:13:26;;;;;;;2.97;2.07;;;7.20;91.20;;;;;;5025212;28;20207;-72
2023/01/17 07:15:52;;;;;;;2.17;2.00;;;7.30;91.10;;;;;;5030694;28;20183;-73
2023/01/17 07:18:21;;;;;;;2.80;2.10;;;;;;;;;;5025248;28;20188;-72
2023/01/17 07:20:48;;;;;;;2.53;2.10;;;7.50;90.90;;;;;;5054405;28;20191;-73
2023/01/17 07:23:14;;;;;;;2.17;2.07;;;;;;;;;;5019299;28;20184;-71
2023/01/17 07:25:40;;;;;;;2.23;2.13;;;;;;;;;;5046851;28;20254;-71
2023/01/17 07:28:06;;;;;;;2.30;2.13;;;;;;;;;;5026024;28;20655;-71
2023/01/17 07:30:32;;;;;;;2.13;2.00;;;;;;;;;;5025113;28;20920;-71
2023/01/17 07:32:57;;;;;;;1.50;1.43;;;8.10;90.70;;;;;;5023433;28;20180;-71
2023/01/17 07:35:25;;;;;;;2.83;2.27;;;8.30;90.90;;;;;;5024259;28;20261;-70
2023/01/17 07:37:51;;;;;;;1.10;1.10;;;8.40;88.70;;;;;;5021765;28;20187;-71
2023/01/17 07:40:19;;;;;;;1.20;1.20;;;8.70;89.80;;;;;;5022505;28;20295;-69
2023/01/17 07:42:45;;;;;;;1.77;1.67;;;8.90;89.90;;;;;;5029201;28;20183;-70
2023/01/17 07:45:13;;;;;;;3.43;1.70;;;9.20;90.10;;;;;;5027205;28;20196;-72
2023/01/17 07:47:39;;;;;;;3.30;1.67;;;9.50;90.50;;;;;;5025785;28;20321;-72
2023/01/17 07:50:06;;;;;;;2.30;1.33;;;9.90;88.80;;;;;;5025730;28;20263;-70
2023/01/17 07:52:31;;;;;;;1.47;0.80;;;10.30;86.90;;;;;;5017950;28;20184;-72
2023/01/17 07:54:57;;;;;;;0.90;0.90;;;10.60;86.90;;;;;;5026103;28;20681;-72
2023/01/17 07:57:23;;;;;;;1.00;1.00;;;10.60;86.90;;;;;;5024712;28;20190;-71
2023/01/17 07:59:52;;;;;;;1.88;1.30;;;11.30;85.20;;;;;;5026570;28;20192;-71
2023/01/17 08:02:20;;;;;;;0.93;0.90;;;11.60;84.80;;;;;;5023121;28;20216;-70
2023/01/17 08:04:46;;;;;;;1.20;1.10;;;11.90;85.50;;;;;;5023091;28;20184;-71
2023/01/17 08:07:13;;;;;;;0.70;0.60;;;12.20;85.30;;;;;;5024272;28;20180;-71
2023/01/17 08:09:42;;;;;;;0.85;0.85;;;12.50;82.30;;;;;;5032798;28;20353;-70
2023/01/17 08:12:08;;;;;;;1.02;1.02;;;12.50;82.40;;;;;;5029054;28;20702;-71
2023/01/17 08:14:34;;;;;;;1.65;0.95;;;12.70;80.20;;;;;;5026157;28;20252;-70
2023/01/17 08:17:11;;;;;;;0.77;0.77;;;12.90;81.10;;;;;;5023518;28;20180;-71
2023/01/17 08:19:36;;;;;;;0.75;0.75;;;13.00;82.10;;;;;;5021566;28;20263;-71
2023/01/17 08:22:02;;;;;;;0.70;0.70;;;13.20;80.20;;;;;;5027121;28;20263;-71
2023/01/17 08:24:28;;;;;;;0.50;0.50;;;13.40;77.90;;;;;;5022979;28;20176;-72
2023/01/17 08:26:55;;;;;;;0.65;0.65;;;13.80;79.90;;;;;;5031568;28;20186;-72
2023/01/17 08:29:20;;;;;;;0.75;0.75;;;14.10;79.80;;;;;;5032669;28;20219;-71
2023/01/17 08:31:46;;;;;;;0.52;0.50;;;14.10;79.50;;;;;;5023136;28;20182;-71
2023/01/17 08:34:13;;;;;;;2.17;0.73;;;14.40;75.80;;;;;;5033561;28;20717;-71
2023/01/17 08:36:41;;;;;;;2.65;0.60;;;14.60;77.50;;;;;;5023634;28;20192;-71
2023/01/17 08:39:08;;;;;;;3.92;0.30;;;14.90;73.50;;;;;;5024135;28;20237;-72
2023/01/17 08:41:34;;;;;;;0.40;0.25;;;15.00;69.40;;;;;;5028342;28;20208;-71
2023/01/17 08:44:01;;;;;;;0.30;0.30;;;15.10;69.60;;;;;;5022683;28;20223;-69
2023/01/17 08:46:27;;;;;;;0.40;0.30;;;15.30;72.80;;;;;;5024102;28;20264;-70
2023/01/17 08:49:01;;;;;;;0.30;0.30;;;15.50;70.20;;;;;;5022442;28;20694;-70
2023/01/17 08:51:28;;;;;;;0.30;0.30;;;15.60;67.60;;;;;;5022429;28;20744;-69
2023/01/17 08:53:55;;;;;;;0.30;0.30;;;15.60;68.50;;;;;;5022326;28;20176;-70
2023/01/17 08:56:22;;;;;;;0.30;0.30;;;15.60;68.70;;;;;;5022605;28;20219;-70
2023/01/17 08:58:48;;;;;;;0.30;0.30;;;15.70;68.40;;;;;;5023690;28;20267;-69
2023/01/17 09:01:14;;;;;;;0.55;0.30;;;15.70;68.00;;;;;;5023485;28;20271;-70
2023/01/17 09:03:40;;;;;;;0.40;0.40;;;15.80;71.00;;;;;;5024315;28;20235;-70
2023/01/17 09:06:14;;;;;;;0.50;0.50;;;15.50;66.80;;;;;;5020792;28;20189;-70
2023/01/17 09:08:40;;;;;;;5.85;0.40;;;15.60;69.20;;;;;;5026072;28;20226;-70
2023/01/17 09:11:08;;;;;;;0.20;0.20;;;15.50;68.30;;;;;;5029368;28;20176;-70
2023/01/17 09:13:34;;;;;;;1.00;0.40;;;15.40;66.60;;;;;;5027225;28;20204;-70
2023/01/17 09:16:00;;;;;;;0.30;0.30;;;15.30;66.60;;;;;;5019000;28;20212;-70
2023/01/17 09:18:27;;;;;;;0.47;0.40;;;15.30;67.10;;;;;;5027904;28;20196;-70
2023/01/17 09:20:54;;;;;;;1.95;0.60;;;15.20;66.80;;;;;;5023160;28;20242;-72
2023/01/17 09:23:22;;;;;;;0.40;0.40;;;15.20;66.20;;;;;;5026744;28;20279;-69
2023/01/17 09:25:56;;;;;;;0.45;0.20;;;15.20;66.40;;;;;;5023951;28;20181;-70
2023/01/17 09:28:23;;;;;;;2.00;0.30;;;15.20;66.10;;;;;;5015876;28;20627;-71
2023/01/17 09:30:49;;;;;;;0.30;0.30;;;15.30;66.80;;;;;;5021976;28;20180;-72
2023/01/17 09:33:15;;;;;;;0.30;0.30;;;15.50;67.50;;;;;;5024826;28;20561;-71
2023/01/17 09:35:40;;;;;;;0.20;0.20;;;15.50;65.80;;;;;;5027007;28;20242;-70
2023/01/17 09:38:06;;;;;;;0.32;0.32;;;15.40;65.60;;;;;;5027120;28;20184;-71
2023/01/17 09:40:32;;;;;;;0.40;0.40;;;15.50;66.20;;;;;;5020238;28;20187;-71
2023/01/17 09:43:04;;;;;;;0.32;0.32;;;15.60;67.20;;;;;;5024431;28;20665;-72
2023/01/17 09:45:32;;;;;;;0.30;0.30;;;15.70;66.70;;;;;;5027070;28;20196;-70
2023/01/17 09:47:59;;;;;;;0.40;0.40;;;15.70;66.00;;;;;;5027228;28;20267;-73
2023/01/17 09:50:33;;;;;;;0.43;0.43;;;15.70;66.50;;;;;;5024572;28;20732;-70
2023/01/17 09:53:12;;;;;;;0.30;0.30;;;15.70;66.40;;;;;;5026553;28;20176;-70
2023/01/17 09:56:02;;;;;;;5.70;0.60;;;15.70;65.20;;;;;;5026400;28;20173;-71
2023/01/17 09:59:00;;;;;;;3.53;0.40;;;15.50;66.10;;;;;;5027072;28;20212;-71
2023/01/17 10:01:49;;;;;;;0.40;0.40;;;15.50;66.10;;;;;;5030076;28;20696;-71
2023/01/17 10:04:40;;;;;;;0.55;0.55;;;15.30;65.90;;;;;;5029225;28;20581;-70
2023/01/17 10:07:27;;;;;;;0.55;0.55;;;15.40;67.60;;;;;;5026297;28;20171;-70
2023/01/17 10:10:08;;;;;;;0.60;0.60;;;15.50;69.40;;;;;;5051470;28;20214;-70
2023/01/17 10:13:12;;;;;;;0.40;0.40;;;15.70;66.70;;;;;;5017616;28;20196;-70
2023/01/17 10:15:46;;;;;;;0.60;0.60;;;15.90;66.70;;;;;;5023258;28;20196;-71
2023/01/17 10:18:29;;;;;;;0.65;0.50;;;16.00;66.50;;;;;;5023229;28;20198;-71
2023/01/17 10:21:04;;;;;;;0.50;0.50;;;16.10;67.10;;;;;;5029819;28;20180;-71
2023/01/17 10:23:50;;;;;;;2.08;0.60;;;16.20;66.90;;;;;;5026791;28;20216;-72
2023/01/17 10:26:21;;;;;;;0.30;0.30;;;16.30;66.80;;;;;;5021893;28;21141;-70
2023/01/17 10:28:50;;;;;;;0.38;0.38;;;16.30;66.30;;;;;;5022582;28;20212;-71
2023/01/17 10:31:18;;;;;;;1.85;0.57;;;16.20;64.70;;;;;;5021697;28;20200;-71
2023/01/17 10:33:52;;;;;;;1.77;0.32;;;16.10;64.20;;;;;;5026137;28;20192;-72
2023/01/17 10:36:31;;;;;;;0.40;0.40;;;15.90;65.70;;;;;;5024585;28;20184;-71
2023/01/17 10:39:11;;;;;;;0.50;0.50;;;15.90;66.40;;;;;;5027533;28;20274;-70
2023/01/17 10:41:42;;;;;;;0.40;0.40;;;15.90;66.80;;;;;;5014681;28;20229;-70
2023/01/17 10:44:16;;;;;;;0.38;0.32;;;15.90;65.30;;;;;;5026692;28;20200;-70
2023/01/17 10:46:50;;;;;;;1.45;0.40;;;16.00;67.20;;;;;;5024782;28;20759;-70
2023/01/17 10:49:19;;;;;;;0.57;0.50;;;16.00;64.80;;;;;;5026273;28;20231;-70
2023/01/17 10:52:07;;;;;;;0.40;0.40;;;16.00;65.20;;;;;;5029949;28;20691;-72
2023/01/17 10:54:45;;;;;;;0.43;0.43;;;16.00;66.20;;;;;;5062601;28;20228;-71
2023/01/17 10:57:43;;;;;;;0.50;0.50;;;16.00;65.80;;;;;;5034141;28;20184;-70
2023/01/17 11:00:42;;;;;;;0.40;0.40;;;15.90;64.40;;;;;;5031349;28;20563;-70
2023/01/17 11:03:11;;;;;;;0.40;0.40;;;15.60;64.70;;;;;;5037132;28;20187;-70
2023/01/17 11:05:36;;;;;;;0.30;0.30;;;15.30;65.00;;;;;;5026972;28;20267;-72
2023/01/17 11:08:05;;;;;;;1.17;0.47;;;15.30;65.70;;;;;;5032905;28;20357;-69
2023/01/17 11:10:45;;;;;;;0.30;0.30;;;15.20;65.30;;;;;;5023028;28;20180;-70
2023/01/17 11:13:34;;;;;;;0.40;0.40;;;14.90;66.00;;;;;;5029248;28;20180;-71
2023/01/17 11:16:07;;;;;;;0.30;0.30;;;14.90;66.00;;;;;;5030866;28;20195;-71
2023/01/17 11:18:38;;;;;;;0.40;0.40;;;14.80;66.60;;;;;;5034689;28;20195;-72
2023/01/17 11:21:16;;;;;;;0.30;0.30;;;14.60;65.90;;;;;;5033539;28;20183;-71
2023/01/17 11:23:48;;;;;;;0.85;0.40;;;14.60;66.40;;;;;;5034343;28;20190;-71
2023/01/17 11:26:28;;;;;;;1.02;0.93;;;14.60;66.70;;;;;;5034428;28;20199;-71
2023/01/17 11:29:31;;;;;;;0.70;0.60;;;14.60;67.00;;;;;;5029795;28;20702;-71
2023/01/17 11:32:18;;;;;;;0.40;0.40;;;14.80;66.90;;;;;;5034670;28;20236;-71
2023/01/17 11:34:43;;;;;;;0.35;0.35;;;14.80;66.10;;;;;;5034958;28;21133;-71
2023/01/17 11:37:18;;;;;;;0.40;0.40;;;14.70;66.20;;;;;;5032473;28;20196;-71
2023/01/17 11:39:46;;;;;;;0.30;0.30;;;14.60;66.00;;;;;;5035622;28;20186;-71
2023/01/17 11:42:37;;;;;;;0.30;0.30;;;14.60;66.00;;;;;;5030484;28;20200;-71
2023/01/17 11:45:22;;;;;;;0.20;0.20;;;14.60;66.30;;;;;;5035097;28;20207;-71
2023/01/17 11:47:47;;;;;;;0.30;0.30;;;14.60;66.30;;;;;;5034059;28;20186;-71
2023/01/17 11:50:24;;;;;;;0.30;0.30;;;14.50;66.30;;;;;;5034379;28;20233;-71
2023/01/17 11:52:50;;;;;;;0.30;0.30;;;14.70;66.10;;;;;;5034124;28;20290;-71
2023/01/17 11:55:16;;;;;;;0.43;0.43;;;14.70;65.90;;;;;;5033832;28;20254;-71
2023/01/17 11:57:49;;;;;;;0.20;0.20;;;14.80;65.90;;;;;;5033657;28;20187;-71
2023/01/17 12:00:26;;;;;;;0.30;0.30;;;14.80;66.20;;;;;;5034639;28;20184;-71
2023/01/17 12:03:17;;;;;;;1.45;0.43;;;14.80;66.10;;;;;;5032696;28;20183;-70
2023/01/17 12:06:00;;;;;;;0.30;0.30;;;14.80;65.50;;;;;;5032312;28;20803;-70
2023/01/17 12:08:42;;;;;;;0.68;0.68;;;14.70;65.50;;;;;;5032706;28;20289;-69
2023/01/17 12:11:15;;;;;;;0.25;0.25;;;14.70;65.30;;;;;;5032783;28;20216;-70
2023/01/17 12:14:02;;;;;;;0.70;0.40;;;14.60;65.70;;;;;;5031545;28;20692;-69
2023/01/17 12:16:49;;;;;;;0.30;0.30;;;14.80;65.80;;;;;;5034090;28;20263;-69
2023/01/17 12:19:44;;;;;;;0.20;0.20;;;14.90;65.40;;;;;;5033129;28;20191;-71
2023/01/17 12:22:43;;;;;;;1.00;0.50;;;14.90;65.90;;;;;;5047496;28;20722;-72
2023/01/17 12:25:38;;;;;;;0.40;0.40;;;14.70;65.40;;;;;;5032108;28;20807;-69
2023/01/17 12:28:24;;;;;;;0.30;0.30;;;14.80;65.40;;;;;;5031664;28;20234;-70
2023/01/17 12:30:59;;;;;;;0.32;0.30;;;14.80;64.80;;;;;;5030894;28;20250;-71
2023/01/17 12:33:38;;;;;;;0.20;0.20;;;14.90;65.60;;;;;;5031157;28;20187;-69
2023/01/17 12:36:16;;;;;;;0.30;0.30;;;15.00;64.60;;;;;;5032627;28;20317;-70
2023/01/17 12:38:44;;;;;;;0.38;0.30;;;14.90;65.20;;;;;;5032530;28;20187;-70
2023/01/17 12:41:25;;;;;;;0.20;0.20;;;14.90;65.70;;;;;;5033237;28;20188;-70
2023/01/17 12:43:56;;;;;;;0.82;0.43;;;15.10;64.90;;;;;;5032540;28;20648;-71
2023/01/17 12:46:37;;;;;;;0.68;0.22;;;15.20;65.00;;;;;;5032554;28;20631;-71
2023/01/17 12:49:22;;;;;;;0.30;0.30;;;15.40;65.00;;;;;;5032706;28;20207;-70
2023/01/17 12:51:54;;;;;;;0.40;0.40;;;15.50;65.50;;;;;;5031210;28;20234;-72
2023/01/17 12:54:30;;;;;;;0.50;0.40;;;15.60;64.20;;;;;;5033239;28;20192;-71
2023/01/17 12:57:18;;;;;;;0.20;0.20;;;15.70;64.40;;;;;;5026222;28;20187;-72
2023/01/17 13:00:02;;;;;;;0.40;0.40;;;15.60;63.90;;;;;;5015697;28;20355;-71
2023/01/17 13:02:35;;;;;;;1.55;0.65;;;15.70;63.90;;;;;;5021511;28;20195;-74
2023/01/17 13:05:22;;;;;;;0.45;0.35;;;15.70;64.40;;;;;;5024630;28;20196;-69
2023/01/17 13:08:06;;;;;;;0.30;0.30;;;15.80;63.40;;;;;;5028692;28;20196;-71
2023/01/17 13:10:58;;;;;;;1.30;0.30;;;15.80;62.60;;;;;;5022009;28;20273;-69
2023/01/17 13:13:28;;;;;;;0.20;0.20;;;15.80;62.80;;;;;;4999643;28;20195;-68
2023/01/17 13:15:56;;;;;;;0.20;0.20;;;15.80;63.00;;;;;;5003581;28;20196;-69
2023/01/17 13:18:28;;;;;;;0.35;0.35;;;15.90;64.30;;;;;;5001689;28;20292;-68
2023/01/17 13:20:55;;;;;;;2.58;0.35;;;15.90;64.20;;;;;;4987963;28;20216;-70
2023/01/17 13:23:51;;;;;;;0.68;0.30;;;15.90;62.00;;;;;;5002523;28;20224;-70
2023/01/17 13:26:35;;;;;;;0.30;0.30;;;16.00;62.60;;;;;;4996342;28;20772;-74
2023/01/17 13:29:20;;;;;;;0.20;0.20;;;16.00;62.90;;;;;;5000826;28;20225;-69
2023/01/17 13:31:54;;;;;;;1.00;0.38;;;16.10;63.50;;;;;;5002596;28;20208;-71
2023/01/17 13:34:34;;;;;;;0.20;0.20;;;16.10;62.50;;;;;;5004209;28;20193;-71
2023/01/17 13:37:18;;;;;;;0.40;0.30;;;16.00;62.30;;;;;;5003569;28;20197;-71
2023/01/17 13:40:18;;;;;;;0.35;0.35;;;16.10;61.70;;;;;;4999970;28;20272;-69
2023/01/17 13:42:55;;;;;;;0.30;0.30;;;16.10;62.20;;;;;;5002858;28;20242;-71
2023/01/17 13:45:25;;;;;;;0.40;0.40;;;16.00;63.30;;;;;;4997087;28;20208;-69
2023/01/17 13:47:51;;;;;;;0.45;0.45;;;16.00;63.40;;;;;;5002975;28;20189;-71
2023/01/17 13:50:44;;;;;;;0.30;0.30;;;16.00;62.90;;;;;;5008249;28;20188;-71
2023/01/17 13:53:38;;;;;;;0.20;0.20;;;15.80;62.60;;;;;;5025092;28;20177;-71
2023/01/17 13:56:14;;;;;;;0.25;0.25;;;15.70;63.40;;;;;;5021475;28;20181;-70
2023/01/17 13:58:50;;;;;;;0.22;0.22;;;15.80;63.40;;;;;;5025756;28;20701;-70
2023/01/17 14:01:41;;;;;;;0.30;0.30;;;15.80;63.10;;;;;;5025890;28;20175;-70
2023/01/17 14:04:11;;;;;;;0.75;0.20;;;15.80;63.00;;;;;;5039460;28;20595;-70
2023/01/17 14:06:40;;;;;;;0.40;0.40;;;15.80;63.80;;;;;;5017284;28;20219;-71
2023/01/17 14:09:11;;;;;;;0.28;0.28;;;15.70;63.50;;;;;;5028268;28;20228;-70
2023/01/17 14:11:52;;;;;;;0.30;0.30;;;15.70;64.40;;;;;;5023202;28;21049;-71
2023/01/17 14:14:39;;;;;;;0.43;0.43;;;15.70;63.30;;;;;;5023534;28;20238;-71
2023/01/17 14:17:33;;;;;;;4.28;0.45;;;15.70;63.50;;;;;;5023472;28;20176;-70
2023/01/17 14:20:07;;;;;;;0.30;0.30;;;15.60;63.20;;;;;;4945817;28;20206;-70
2023/01/17 14:22:58;;;;;;;0.30;0.30;;;15.70;63.10;;;;;;4943900;29;20266;-69
2023/01/17 14:25:28;;;;;;;0.77;0.47;;;15.70;62.90;;;;;;4940570;28;20207;-69
2023/01/17 14:28:04;;;;;;;0.40;0.40;;;15.70;63.20;;;;;;4944974;28;20195;-68
2023/01/17 14:30:34;;;;;;;0.30;0.30;;;15.60;63.00;;;;;;4941184;28;20194;-69
2023/01/17 14:33:09;;;;;;;0.30;0.30;;;15.60;63.20;;;;;;4944262;29;20628;-70
2023/01/17 14:35:47;;;;;;;1.00;0.40;;;15.60;63.40;;;;;;4946002;29;20235;-70
2023/01/17 14:38:19;;;;;;;0.40;0.40;;;15.60;64.20;;;;;;4945590;28;20282;-70
2023/01/17 14:41:08;;;;;;;0.70;0.30;;;15.50;63.70;;;;;;4945743;29;20210;-70
2023/01/17 14:43:41;;;;;;;0.20;0.20;;;15.40;62.70;;;;;;4944924;29;20207;-70
2023/01/17 14:46:28;;;;;;;0.30;0.30;;;15.40;63.10;;;;;;4943436;29;20265;-69
2023/01/17 14:49:05;;;;;;;0.52;0.30;;;15.30;63.30;;;;;;4944065;28;20720;-69
2023/01/17 14:51:33;;;;;;;0.80;0.40;;;15.10;64.10;;;;;;4954094;28;20202;-69
2023/01/17 14:54:01;;;;;;;1.45;0.52;;;15.00;64.40;;;;;;4938890;28;20278;-70
2023/01/17 14:56:30;;;;;;;0.30;0.30;;;15.00;64.50;;;;;;4962400;28;20199;-70
2023/01/17 14:59:19;;;;;;;0.30;0.30;;;14.80;64.30;;;;;;5032944;28;20192;-70